Time;durP1;ratioP1;P1;durP2;ratioP2;P2;SDS_P1;SDS_P2;PMS_P1;PMS_P2;Temp;Humidity;BMP_temperature;BMP_pressure;BME280_temperature;BME280_humidity;BME280_pressure;Samples;Min_cycle;Max_cycle;Signal;HPM_P1;HPM_P2
2022/02/02 00:04:46;;;;;;;19.30;4.73;;;7.80;98.80;;;;;;5033078;28;20030;-64
2022/02/02 00:09:40;;;;;;;17.15;3.60;;;7.80;99.00;;;;;;5034118;28;20105;-63
2022/02/02 00:14:45;;;;;;;16.15;5.03;;;7.80;99.40;;;;;;5035549;28;20029;-63
2022/02/02 00:19:43;;;;;;;18.15;4.78;;;7.80;99.20;;;;;;5052214;28;20072;-64
2022/02/02 00:22:13;;;;;;;13.82;3.95;;;7.80;99.20;;;;;;5050471;28;20052;-64
2022/02/02 00:25:00;;;;;;;19.63;3.88;;;7.80;99.10;;;;;;5035900;28;20029;-64
2022/02/02 00:27:26;;;;;;;15.90;3.35;;;7.80;99.00;;;;;;5035807;28;20078;-63
2022/02/02 00:29:58;;;;;;;18.02;4.50;;;7.80;98.90;;;;;;5031992;28;20038;-63
2022/02/02 00:32:47;;;;;;;20.40;4.18;;;7.90;99.00;;;;;;5043939;28;20025;-63
2022/02/02 00:35:16;;;;;;;17.40;4.68;;;7.90;99.00;;;;;;5052171;28;20036;-63
2022/02/02 00:37:42;;;;;;;15.30;3.78;;;7.90;99.00;;;;;;5038946;28;20021;-63
2022/02/02 00:40:09;;;;;;;17.05;4.30;;;7.90;99.00;;;;;;5048771;28;20043;-63
2022/02/02 00:42:35;;;;;;;17.05;4.35;;;7.90;99.00;;;;;;5028878;28;20017;-63
2022/02/02 00:45:00;;;;;;;16.02;3.97;;;7.80;98.90;;;;;;5031469;28;20401;-63
2022/02/02 00:47:27;;;;;;;14.38;5.43;;;7.90;98.90;;;;;;5041101;28;20106;-64
2022/02/02 00:49:53;;;;;;;17.50;4.72;;;7.80;98.90;;;;;;5051908;28;20029;-63
2022/02/02 00:52:19;;;;;;;15.98;3.63;;;7.80;98.90;;;;;;5048231;28;20030;-63
2022/02/02 00:54:47;;;;;;;27.27;6.05;;;7.80;98.90;;;;;;5048532;28;20108;-63
2022/02/02 00:57:13;;;;;;;16.80;4.40;;;7.80;98.80;;;;;;5043459;28;20028;-63
2022/02/02 00:59:38;;;;;;;17.58;5.05;;;7.80;98.70;;;;;;5031767;28;20771;-63
2022/02/02 01:02:04;;;;;;;17.15;3.80;;;7.80;98.50;;;;;;5041648;28;20032;-63
2022/02/02 01:04:29;;;;;;;23.75;4.38;;;7.80;98.60;;;;;;5031922;28;20021;-63
2022/02/02 01:07:06;;;;;;;20.73;4.78;;;7.80;98.50;;;;;;5032882;28;20524;-63
2022/02/02 01:09:39;;;;;;;16.25;4.43;;;7.80;98.40;;;;;;5031798;28;20105;-64
2022/02/02 01:12:33;;;;;;;20.95;4.68;;;7.90;98.30;;;;;;5031271;28;20025;-64
2022/02/02 01:20:34;;;;;;;22.83;4.78;;;7.90;98.10;;;;;;5051307;28;20076;-64
2022/02/02 01:28:28;;;;;;;16.40;5.10;;;7.80;97.90;;;;;;5033891;28;20033;-64
2022/02/02 01:30:54;;;;;;;17.98;5.03;;;7.90;97.90;;;;;;5029759;28;20041;-64
2022/02/02 01:33:20;;;;;;;19.35;5.05;;;7.90;97.90;;;;;;5045235;28;20029;-64
2022/02/02 01:35:46;;;;;;;21.17;5.47;;;7.90;97.80;;;;;;5051125;28;20036;-64
2022/02/02 01:38:12;;;;;;;23.50;4.82;;;7.90;97.70;;;;;;5048396;28;20037;-64
2022/02/02 01:40:43;;;;;;;23.52;4.68;;;7.90;97.60;;;;;;5039153;28;20048;-64
2022/02/02 01:43:17;;;;;;;19.45;5.38;;;8.00;97.70;;;;;;5039340;28;20021;-64
2022/02/02 01:45:48;;;;;;;19.13;5.43;;;8.00;97.50;;;;;;5050556;28;20186;-64
2022/02/02 01:55:45;;;;;;;27.92;6.70;;;8.00;97.30;;;;;;5041323;28;20119;-63
2022/02/02 01:58:28;;;;;;;16.42;4.03;;;8.00;97.30;;;;;;5042638;28;20468;-63
2022/02/02 02:00:54;;;;;;;19.17;5.32;;;8.00;97.20;;;;;;5044589;28;20053;-64
2022/02/02 02:03:19;;;;;;;18.23;4.10;;;8.00;97.20;;;;;;5045358;28;20047;-64
2022/02/02 02:05:45;;;;;;;19.40;5.43;;;8.00;97.20;;;;;;5045499;28;20075;-64
2022/02/02 02:08:11;;;;;;;19.13;3.97;;;8.00;97.20;;;;;;5043616;28;20024;-64
2022/02/02 02:10:36;;;;;;;23.35;4.65;;;8.00;97.30;;;;;;5049590;28;20032;-63
2022/02/02 02:13:11;;;;;;;13.70;4.30;;;7.90;97.20;;;;;;5041975;28;20029;-63
2022/02/02 02:15:37;;;;;;;;;;;7.80;97.30;;;;;;5040810;28;20039;-63
2022/02/02 02:18:04;;;;;;;16.20;4.72;;;7.90;97.40;;;;;;5039981;28;20306;-63
2022/02/02 02:20:30;;;;;;;24.05;4.22;;;7.90;97.40;;;;;;5050527;28;20038;-63
2022/02/02 02:22:56;;;;;;;20.40;4.57;;;7.90;97.40;;;;;;5041218;28;20017;-63
2022/02/02 02:25:27;;;;;;;16.48;3.47;;;7.90;97.40;;;;;;5053406;28;20075;-63
2022/02/02 02:27:54;;;;;;;16.65;4.10;;;7.90;97.40;;;;;;5041182;28;20029;-63
2022/02/02 02:30:40;;;;;;;18.75;4.07;;;7.90;97.50;;;;;;5050254;28;20028;-63
2022/02/02 02:36:20;;;;;;;16.92;3.92;;;7.90;97.50;;;;;;5042437;28;19996;-64
2022/02/02 02:57:56;;;;;;;18.37;4.70;;;7.70;98.30;;;;;;5053836;28;20036;-64
2022/02/02 03:00:37;;;;;;;16.63;4.22;;;7.60;98.40;;;;;;5033384;28;20144;-64
2022/02/02 03:14:35;;;;;;;21.42;4.75;;;7.60;98.40;;;;;;5040575;28;20029;-64
2022/02/02 03:30:18;;;;;;;25.73;5.20;;;7.60;98.50;;;;;;5034894;28;20113;-64
2022/02/02 03:34:37;;;;;;;21.88;4.90;;;7.60;98.50;;;;;;5034017;28;20041;-64
2022/02/02 03:49:45;;;;;;;23.55;5.15;;;7.60;98.30;;;;;;5051384;28;20303;-64
2022/02/02 03:59:47;;;;;;;25.90;5.25;;;7.70;98.40;;;;;;5046767;28;20039;-63
2022/02/02 04:02:38;;;;;;;24.50;5.35;;;7.60;98.50;;;;;;5047419;28;20396;-64
2022/02/02 04:07:52;;;;;;;25.75;5.30;;;7.60;98.60;;;;;;5043297;28;20543;-63
2022/02/02 04:10:18;;;;;;;25.05;5.70;;;7.60;98.70;;;;;;5052686;28;20036;-64
2022/02/02 04:12:57;;;;;;;28.70;7.18;;;7.60;98.70;;;;;;5045315;28;20024;-64
2022/02/02 04:16:43;;;;;;;21.48;5.57;;;7.60;98.70;;;;;;5032401;28;20060;-64
2022/02/02 04:37:23;;;;;;;19.33;5.50;;;7.60;98.70;;;;;;5034658;28;20583;-64
2022/02/02 04:59:15;;;;;;;20.55;5.60;;;7.60;97.50;;;;;;5042164;28;20032;-63
2022/02/02 05:02:38;;;;;;;21.02;4.22;;;7.60;97.50;;;;;;5034513;28;20061;-64
2022/02/02 05:05:16;;;;;;;16.65;4.20;;;7.60;97.40;;;;;;5046285;28;20052;-64
2022/02/02 05:07:45;;;;;;;16.23;4.72;;;7.60;97.10;;;;;;5048480;28;20029;-64
2022/02/02 05:10:36;;;;;;;16.98;3.95;;;7.70;97.00;;;;;;5050648;28;20033;-63
2022/02/02 05:13:59;;;;;;;19.23;4.65;;;7.60;96.70;;;;;;5050144;28;20041;-64
2022/02/02 05:16:08;;;;;;;23.27;4.85;;;7.70;96.70;;;;;;5049093;28;20111;-64
2022/02/02 05:18:58;;;;;;;20.27;4.57;;;7.70;96.40;;;;;;5032383;28;20062;-64
2022/02/02 05:25:10;;;;;;;20.70;4.63;;;7.70;96.40;;;;;;5040788;28;20110;-64
2022/02/02 05:28:28;;;;;;;20.20;4.13;;;7.70;96.30;;;;;;5050823;28;20618;-64
2022/02/02 05:41:11;;;;;;;14.75;4.05;;;7.70;96.20;;;;;;5039896;28;20043;-64
2022/02/02 05:51:39;;;;;;;21.10;5.72;;;7.70;96.20;;;;;;5050961;28;20029;-64
2022/02/02 05:54:06;;;;;;;19.23;4.95;;;7.70;96.20;;;;;;5049185;28;20040;-64
2022/02/02 05:56:42;;;;;;;17.48;5.10;;;7.70;96.00;;;;;;5031554;28;20091;-64
2022/02/02 05:59:10;;;;;;;19.65;4.80;;;7.60;95.80;;;;;;5038507;28;20036;-65
2022/02/02 06:01:42;;;;;;;11.90;4.35;;;7.60;96.00;;;;;;5050679;28;20056;-64
2022/02/02 06:04:08;;;;;;;18.20;4.75;;;7.60;96.00;;;;;;5048180;28;20032;-66
2022/02/02 06:06:38;;;;;;;19.70;4.10;;;7.60;95.90;;;;;;5044751;28;20071;-64
2022/02/02 06:09:04;;;;;;;16.15;3.70;;;7.60;95.90;;;;;;5030488;28;20033;-63
2022/02/02 06:11:30;;;;;;;13.25;3.80;;;7.60;95.90;;;;;;5030985;28;20033;-64
2022/02/02 06:13:58;;;;;;;19.20;3.78;;;7.60;95.90;;;;;;5039860;28;20576;-65
2022/02/02 06:16:25;;;;;;;14.13;4.13;;;7.60;95.90;;;;;;5048407;28;20039;-66
2022/02/02 06:18:59;;;;;;;18.92;3.45;;;7.50;95.90;;;;;;5038143;28;20056;-66
2022/02/02 06:21:33;;;;;;;11.73;3.43;;;7.50;95.90;;;;;;5050854;28;20128;-65
2022/02/02 06:24:09;;;;;;;14.43;4.63;;;7.50;95.90;;;;;;5048294;28;20025;-66
2022/02/02 06:26:37;;;;;;;20.05;5.60;;;7.50;96.00;;;;;;5050745;28;20103;-65
2022/02/02 06:29:05;;;;;;;12.38;3.78;;;7.50;96.10;;;;;;5039239;28;20026;-65
2022/02/02 06:31:37;;;;;;;20.83;3.60;;;7.40;96.20;;;;;;5036384;28;20029;-65
2022/02/02 06:34:06;;;;;;;22.85;3.83;;;7.40;96.20;;;;;;5048848;28;20551;-65
2022/02/02 06:36:36;;;;;;;24.38;6.22;;;7.50;96.30;;;;;;5034208;28;20064;-65
2022/02/02 06:39:03;;;;;;;22.92;5.97;;;7.40;96.20;;;;;;5047309;28;20029;-65
2022/02/02 06:41:29;;;;;;;17.92;5.07;;;7.40;96.30;;;;;;5043757;28;20091;-65
2022/02/02 06:43:54;;;;;;;23.48;4.80;;;7.40;96.20;;;;;;5044295;28;20427;-65
2022/02/02 06:46:28;;;;;;;16.73;4.15;;;7.40;96.30;;;;;;5054257;28;20537;-65
2022/02/02 06:48:54;;;;;;;12.02;4.10;;;7.40;96.30;;;;;;5043371;28;20151;-65
2022/02/02 06:51:32;;;;;;;15.60;3.58;;;7.40;96.30;;;;;;5034374;28;20052;-65
2022/02/02 06:54:07;;;;;;;21.10;4.55;;;7.40;96.30;;;;;;5038432;28;20037;-65
2022/02/02 07:04:54;;;;;;;19.13;4.70;;;7.50;96.10;;;;;;5052371;28;20520;-65
2022/02/02 07:07:36;;;;;;;16.58;4.10;;;7.60;96.10;;;;;;5034010;28;20276;-65
2022/02/02 07:10:20;;;;;;;25.27;5.32;;;7.60;96.10;;;;;;5034926;28;20564;-64
2022/02/02 07:15:22;;;;;;;21.10;5.32;;;7.60;96.00;;;;;;5036696;28;20055;-63
2022/02/02 07:20:24;;;;;;;19.27;4.70;;;7.70;96.00;;;;;;5050757;28;20041;-63
2022/02/02 07:23:23;;;;;;;28.10;4.50;;;7.80;96.00;;;;;;5066354;28;20028;-63
2022/02/02 07:28:44;;;;;;;18.30;4.85;;;7.80;95.90;;;;;;5038907;28;20028;-63
2022/02/02 07:31:30;;;;;;;17.17;4.45;;;7.90;96.00;;;;;;5036647;28;20033;-62
2022/02/02 07:34:14;;;;;;;17.10;4.20;;;7.90;95.90;;;;;;5037782;28;20061;-62
2022/02/02 07:36:44;;;;;;;20.37;4.73;;;7.90;95.90;;;;;;5037850;28;20029;-62
2022/02/02 07:39:12;;;;;;;13.88;4.63;;;7.90;95.80;;;;;;5038816;28;20291;-63
2022/02/02 07:41:44;;;;;;;16.15;5.00;;;7.90;95.80;;;;;;5036340;28;20033;-62
2022/02/02 07:44:22;;;;;;;18.92;4.80;;;8.00;95.80;;;;;;5043020;28;20108;-63
2022/02/02 07:46:50;;;;;;;19.80;4.53;;;8.00;95.70;;;;;;5036605;28;20032;-63
2022/02/02 07:49:22;;;;;;;14.73;4.45;;;8.00;95.80;;;;;;5038815;28;20029;-63
2022/02/02 07:51:51;;;;;;;15.93;4.55;;;8.10;95.80;;;;;;5036374;28;20034;-63
2022/02/02 07:54:23;;;;;;;16.80;4.63;;;8.10;95.60;;;;;;5036065;28;20037;-62
2022/02/02 07:56:49;;;;;;;13.57;4.18;;;8.20;95.60;;;;;;5039358;28;20504;-63
2022/02/02 07:59:27;;;;;;;14.23;3.95;;;8.20;95.40;;;;;;5041789;28;20037;-62
2022/02/02 08:01:53;;;;;;;16.13;4.25;;;8.20;95.30;;;;;;5043120;28;20088;-62
2022/02/02 08:04:21;;;;;;;16.83;4.60;;;8.20;95.10;;;;;;5038263;28;20407;-63
2022/02/02 08:06:53;;;;;;;13.30;3.38;;;8.20;95.20;;;;;;5040547;28;20032;-63
2022/02/02 08:09:29;;;;;;;16.20;3.97;;;8.20;95.10;;;;;;5038963;28;20033;-63
2022/02/02 08:11:56;;;;;;;13.20;3.55;;;8.20;95.30;;;;;;5043258;28;20030;-63
2022/02/02 08:14:23;;;;;;;16.45;3.55;;;8.20;95.10;;;;;;5034903;28;20431;-63
2022/02/02 08:16:48;;;;;;;12.60;3.10;;;8.20;95.00;;;;;;5038900;28;20017;-63
2022/02/02 08:19:16;;;;;;;15.30;4.57;;;8.20;94.90;;;;;;5026074;28;20043;-63
2022/02/02 08:21:43;;;;;;;12.38;3.95;;;8.30;95.10;;;;;;5041639;28;20078;-63
2022/02/02 08:24:09;;;;;;;15.88;3.55;;;8.30;95.20;;;;;;5036812;28;20036;-63
2022/02/02 08:26:35;;;;;;;10.80;2.63;;;8.30;95.40;;;;;;5044761;28;20036;-63
2022/02/02 08:29:01;;;;;;;13.38;4.10;;;8.20;95.40;;;;;;5041889;28;20036;-62
2022/02/02 08:31:27;;;;;;;12.00;3.50;;;8.20;95.40;;;;;;5039678;28;20496;-62
2022/02/02 08:34:01;;;;;;;14.30;3.30;;;8.10;95.60;;;;;;5037299;28;20036;-62
2022/02/02 08:36:28;;;;;;;22.02;4.80;;;8.10;95.80;;;;;;5039146;28;20084;-63
2022/02/02 08:41:43;;;;;;;17.35;4.28;;;8.00;96.10;;;;;;5046994;28;20032;-63
2022/02/02 08:44:15;;;;;;;20.00;4.22;;;8.00;96.10;;;;;;5040205;28;20025;-63
2022/02/02 08:46:47;;;;;;;9.25;3.17;;;8.00;96.10;;;;;;5034701;28;20522;-63
2022/02/02 08:49:14;;;;;;;12.38;4.15;;;8.00;96.10;;;;;;5039168;28;20088;-64
2022/02/02 08:51:43;;;;;;;17.33;3.60;;;7.90;95.80;;;;;;5039274;28;20125;-64
2022/02/02 08:59:20;;;;;;;11.73;2.97;;;7.90;96.10;;;;;;5035891;28;20032;-65
2022/02/02 09:01:46;;;;;;;12.27;3.33;;;7.90;96.10;;;;;;5035151;28;20412;-64
2022/02/02 09:06:56;;;;;;;11.60;2.90;;;7.90;95.50;;;;;;5032779;28;20037;-64
2022/02/02 09:09:35;;;;;;;10.18;3.22;;;7.90;95.40;;;;;;5036287;28;20025;-64
2022/02/02 09:20:25;;;;;;;13.63;2.90;;;7.80;95.10;;;;;;5041759;28;20401;-64
2022/02/02 09:25:26;;;;;;;12.80;2.95;;;7.80;95.30;;;;;;5037478;28;20494;-64
2022/02/02 09:35:52;;;;;;;4.38;1.90;;;8.00;94.60;;;;;;5039463;28;22361;-65
2022/02/02 09:38:18;;;;;;;13.75;2.35;;;8.10;94.20;;;;;;5037715;28;20079;-64
2022/02/02 09:43:21;;;;;;;10.68;2.85;;;8.10;93.60;;;;;;5037589;28;20037;-64
2022/02/02 09:45:58;;;;;;;11.43;2.70;;;8.10;94.00;;;;;;5041814;28;20492;-64
2022/02/02 09:48:29;;;;;;;13.40;3.33;;;8.20;94.20;;;;;;5033049;28;20400;-64
2022/02/02 09:51:02;;;;;;;12.85;2.80;;;8.20;93.80;;;;;;5044284;28;20484;-64
2022/02/02 09:53:35;;;;;;;10.38;3.75;;;8.20;94.00;;;;;;5033223;28;20032;-63
2022/02/02 09:56:16;;;;;;;13.98;2.72;;;8.30;94.20;;;;;;5033612;28;20674;-64
2022/02/02 09:59:00;;;;;;;8.48;2.55;;;8.30;94.10;;;;;;5039686;28;20034;-63
2022/02/02 10:07:47;;;;;;;9.98;3.05;;;8.30;93.50;;;;;;5039007;28;20630;-64
2022/02/02 10:13:06;;;;;;;7.87;2.60;;;8.30;93.30;;;;;;5034148;28;20464;-63
2022/02/02 10:15:35;;;;;;;12.07;3.42;;;8.20;92.80;;;;;;5040335;28;20381;-62
2022/02/02 10:18:04;;;;;;;8.88;3.30;;;8.10;93.10;;;;;;5034027;28;20522;-63
2022/02/02 10:20:30;;;;;;;13.20;2.80;;;8.10;93.20;;;;;;5037981;28;21961;-63
2022/02/02 10:22:59;;;;;;;17.88;4.05;;;8.20;93.50;;;;;;5038281;28;20025;-63
2022/02/02 10:25:36;;;;;;;13.18;4.57;;;8.30;93.60;;;;;;5051433;28;20025;-63
2022/02/02 10:28:13;;;;;;;13.32;2.97;;;8.30;93.50;;;;;;5045042;28;20053;-63
2022/02/02 10:30:43;;;;;;;11.55;3.03;;;8.30;93.60;;;;;;5034425;28;20041;-63
2022/02/02 10:33:14;;;;;;;16.48;3.55;;;8.20;93.80;;;;;;5035682;28;20132;-63
2022/02/02 10:35:42;;;;;;;17.35;4.57;;;8.30;93.80;;;;;;5042139;28;20064;-63
2022/02/02 10:38:14;;;;;;;9.45;3.05;;;8.20;93.90;;;;;;5052482;28;20750;-64
2022/02/02 10:40:48;;;;;;;10.43;2.65;;;8.30;94.00;;;;;;5054086;28;20483;-63
2022/02/02 10:43:34;;;;;;;15.20;4.63;;;8.30;93.80;;;;;;5053016;28;20055;-63
2022/02/02 10:46:12;;;;;;;20.27;3.90;;;8.30;93.70;;;;;;5036168;28;20029;-63
2022/02/02 10:48:53;;;;;;;19.92;4.75;;;8.40;93.50;;;;;;5052155;28;20029;-64
2022/02/02 10:51:34;;;;;;;13.25;3.53;;;8.40;93.70;;;;;;5054203;28;20634;-64
2022/02/02 10:54:14;;;;;;;9.18;3.08;;;8.50;93.40;;;;;;5036999;28;20496;-63
2022/02/02 10:57:01;;;;;;;11.25;3.00;;;8.50;93.40;;;;;;5033867;28;20021;-63
2022/02/02 10:59:58;;;;;;;10.63;3.42;;;8.60;93.30;;;;;;5045874;28;20056;-62
2022/02/02 11:07:55;;;;;;;12.25;4.50;;;8.70;93.10;;;;;;5052432;28;19984;-64
2022/02/02 11:10:25;;;;;;;11.30;3.10;;;8.60;92.40;;;;;;5034178;28;20040;-63
2022/02/02 11:12:53;;;;;;;10.63;2.88;;;8.60;92.00;;;;;;5033803;28;20052;-64
2022/02/02 11:15:44;;;;;;;14.65;4.35;;;8.50;92.40;;;;;;5034144;28;20026;-63
2022/02/02 11:18:20;;;;;;;12.45;3.40;;;8.40;92.00;;;;;;5033367;28;20032;-64
2022/02/02 11:20:46;;;;;;;10.57;3.00;;;8.40;92.40;;;;;;5052929;28;20146;-64
2022/02/02 11:23:12;;;;;;;11.60;3.60;;;8.40;92.20;;;;;;5050124;28;20826;-63
2022/02/02 11:25:40;;;;;;;12.27;3.75;;;8.50;92.50;;;;;;5033544;28;20508;-65
2022/02/02 11:28:21;;;;;;;11.23;3.15;;;8.60;92.50;;;;;;5035277;28;20029;-63
2022/02/02 11:30:49;;;;;;;13.30;4.20;;;8.60;92.00;;;;;;5033698;28;20041;-64
2022/02/02 11:33:15;;;;;;;11.38;2.97;;;8.60;91.90;;;;;;5036304;28;20629;-64
2022/02/02 11:35:46;;;;;;;8.75;3.08;;;8.70;92.30;;;;;;5053436;28;20037;-64
2022/02/02 11:38:40;;;;;;;19.95;3.95;;;8.70;92.20;;;;;;5051397;28;20579;-64
2022/02/02 11:46:44;;;;;;;10.23;3.15;;;8.60;90.70;;;;;;5053460;28;20067;-63
2022/02/02 11:49:17;;;;;;;12.80;2.45;;;8.50;90.70;;;;;;5046102;28;20025;-64
2022/02/02 11:51:47;;;;;;;13.40;2.70;;;8.50;91.10;;;;;;5033464;28;20087;-64
2022/02/02 11:54:15;;;;;;;10.15;3.15;;;8.60;91.00;;;;;;5043099;28;20041;-64
2022/02/02 11:57:00;;;;;;;8.35;2.67;;;8.50;91.00;;;;;;5053244;28;20099;-63
2022/02/02 11:59:45;;;;;;;16.85;3.45;;;8.60;91.00;;;;;;5050802;28;20043;-63
2022/02/02 12:02:18;;;;;;;17.45;3.75;;;8.60;91.00;;;;;;5052699;28;20116;-63
2022/02/02 12:05:16;;;;;;;10.10;2.47;;;8.60;90.70;;;;;;5036496;28;20033;-63
2022/02/02 12:08:24;;;;;;;11.45;3.50;;;8.50;90.40;;;;;;5033065;28;20029;-63
2022/02/02 12:47:11;;;;;;;8.00;2.42;;;8.30;91.00;;;;;;5043249;28;20029;-64
2022/02/02 12:49:47;;;;;;;5.38;1.63;;;8.30;90.70;;;;;;5036172;28;20025;-64
2022/02/02 12:55:59;;;;;;;8.55;3.10;;;8.30;90.70;;;;;;5038628;28;20030;-63
2022/02/02 13:00:51;;;;;;;5.70;2.08;;;8.40;90.40;;;;;;5035768;28;20527;-63
2022/02/02 13:03:17;;;;;;;7.75;2.60;;;8.30;90.00;;;;;;5037847;28;20123;-64
2022/02/02 13:05:45;;;;;;;8.65;1.77;;;8.30;89.70;;;;;;5032821;28;20112;-64
2022/02/02 13:08:11;;;;;;;4.85;1.80;;;8.30;89.90;;;;;;5037972;28;20037;-64
2022/02/02 13:10:38;;;;;;;4.50;1.70;;;8.40;90.00;;;;;;5038783;28;20033;-64
2022/02/02 13:13:13;;;;;;;4.30;1.88;;;8.40;89.70;;;;;;5038814;28;20037;-64
2022/02/02 13:15:59;;;;;;;10.65;2.13;;;8.50;89.90;;;;;;5034288;28;20040;-64
2022/02/02 13:18:37;;;;;;;5.90;1.35;;;8.50;89.20;;;;;;5040934;28;20037;-64
2022/02/02 13:21:18;;;;;;;5.07;2.13;;;8.50;88.60;;;;;;5038969;28;20033;-65
2022/02/02 13:26:52;;;;;;;4.03;1.92;;;8.60;87.20;;;;;;5042464;28;20029;-64
2022/02/02 13:29:30;;;;;;;5.05;1.75;;;8.60;86.50;;;;;;5034082;28;20040;-64
2022/02/02 13:37:36;;;;;;;5.05;1.60;;;8.90;85.50;;;;;;5036053;28;20052;-65
2022/02/02 13:48:53;;;;;;;3.97;1.50;;;8.90;83.60;;;;;;5038297;28;20047;-63
2022/02/02 13:51:40;;;;;;;3.70;1.58;;;8.90;83.20;;;;;;5035130;28;20045;-65
2022/02/02 14:07:24;;;;;;;4.22;1.50;;;8.90;82.60;;;;;;5041108;28;20083;-63
2022/02/02 14:31:26;;;;;;;3.70;1.45;;;8.40;76.40;;;;;;5037112;28;20044;-64
2022/02/02 14:33:54;;;;;;;3.45;1.25;;;8.30;76.50;;;;;;5039959;28;20087;-63
2022/02/02 14:36:24;;;;;;;5.65;1.27;;;8.30;76.80;;;;;;5037726;28;20033;-63
2022/02/02 14:41:23;;;;;;;7.50;1.27;;;8.30;77.80;;;;;;5038808;28;20045;-63
2022/02/02 14:46:42;;;;;;;2.40;1.03;;;8.30;77.80;;;;;;5035775;28;20123;-63
2022/02/02 14:49:14;;;;;;;3.15;1.17;;;8.30;78.20;;;;;;5039279;28;20112;-63
2022/02/02 15:24:37;;;;;;;7.33;1.93;;;8.10;80.60;;;;;;5036855;28;20049;-63
2022/02/02 15:29:57;;;;;;;3.90;1.27;;;8.00;81.50;;;;;;5040856;28;20033;-64
2022/02/02 15:32:22;;;;;;;2.58;1.70;;;7.80;82.70;;;;;;5038153;28;20457;-64
2022/02/02 15:34:52;;;;;;;5.78;1.67;;;7.80;83.50;;;;;;5037719;28;20025;-64
2022/02/02 15:37:32;;;;;;;11.90;3.50;;;7.80;83.40;;;;;;5038288;28;20060;-64
2022/02/02 15:40:14;;;;;;;7.25;2.22;;;7.70;83.90;;;;;;5044230;28;20522;-63
2022/02/02 15:58:51;;;;;;;9.75;2.33;;;7.30;87.20;;;;;;5039687;28;20530;-64
2022/02/02 16:02:01;;;;;;;11.65;3.65;;;7.30;87.30;;;;;;5039487;28;20064;-63
2022/02/02 16:04:09;;;;;;;10.00;2.53;;;7.30;87.80;;;;;;5046159;28;20045;-63
2022/02/02 16:06:35;;;;;;;7.75;2.35;;;7.20;88.10;;;;;;5035648;28;20036;-64
2022/02/02 16:09:16;;;;;;;9.05;2.67;;;7.20;88.40;;;;;;5036124;28;20468;-64
2022/02/02 16:11:41;;;;;;;13.23;3.22;;;7.20;88.40;;;;;;5039735;28;20029;-63
2022/02/02 16:14:14;;;;;;;8.18;2.47;;;7.10;88.70;;;;;;5036670;28;20029;-64
2022/02/02 16:16:57;;;;;;;11.07;2.50;;;7.10;89.00;;;;;;5038959;28;20037;-64
2022/02/02 16:19:29;;;;;;;8.82;2.42;;;7.00;88.90;;;;;;5040990;28;20018;-64
2022/02/02 16:24:59;;;;;;;7.53;3.57;;;7.10;89.10;;;;;;5035081;28;20036;-64
2022/02/02 16:38:16;;;;;;;11.27;2.72;;;6.90;90.20;;;;;;5042071;28;20280;-63
2022/02/02 16:40:44;;;;;;;8.02;2.97;;;6.90;90.40;;;;;;5037325;28;20092;-64
2022/02/02 16:43:14;;;;;;;8.38;2.67;;;6.90;90.40;;;;;;5037787;28;20029;-64
2022/02/02 16:45:45;;;;;;;10.93;2.80;;;6.90;90.40;;;;;;5036380;28;20032;-64
2022/02/02 16:48:12;;;;;;;7.90;2.22;;;6.90;90.40;;;;;;5041472;28;20041;-64
2022/02/02 16:50:42;;;;;;;11.50;2.83;;;6.90;90.60;;;;;;5043627;28;20135;-63
2022/02/02 16:53:34;;;;;;;10.75;2.80;;;6.90;90.60;;;;;;5042372;28;20215;-64
2022/02/02 16:56:08;;;;;;;12.20;2.95;;;6.90;90.70;;;;;;5038727;28;20044;-63
2022/02/02 17:27:54;;;;;;;8.55;3.17;;;6.50;91.60;;;;;;5039738;28;20143;-63
2022/02/02 17:29:45;;;;;;;11.57;3.35;;;6.60;91.90;;;;;;5030616;28;20030;-63
2022/02/02 17:32:08;;;;;;;14.05;3.53;;;6.50;91.80;;;;;;5041094;28;20503;-63
2022/02/02 17:34:44;;;;;;;12.35;4.25;;;6.50;91.80;;;;;;5036071;28;20047;-63
2022/02/02 17:37:26;;;;;;;9.85;2.67;;;6.60;91.90;;;;;;5037813;28;20377;-63
2022/02/02 18:00:06;;;;;;;10.73;3.28;;;6.80;92.00;;;;;;5032926;28;20452;-64
2022/02/02 18:20:46;;;;;;;10.65;2.72;;;7.00;92.00;;;;;;5037390;28;20063;-63
2022/02/02 18:28:35;;;;;;;11.73;3.15;;;6.90;92.50;;;;;;5035257;28;20036;-63
2022/02/02 18:34:13;;;;;;;11.27;3.20;;;6.90;92.50;;;;;;5004889;28;20087;-63
2022/02/02 18:36:57;;;;;;;9.50;2.20;;;6.90;92.90;;;;;;5032801;28;20075;-64
2022/02/02 18:40:44;;;;;;;9.30;2.40;;;6.90;92.90;;;;;;5038271;28;20488;-64
2022/02/02 18:45:29;;;;;;;6.50;2.50;;;6.90;93.10;;;;;;5044092;28;20025;-63
2022/02/02 18:53:37;;;;;;;8.95;2.80;;;6.70;93.30;;;;;;5042821;28;20037;-64
2022/02/02 18:58:47;;;;;;;9.73;2.63;;;6.70;93.70;;;;;;5040749;28;20041;-63
2022/02/02 19:01:34;;;;;;;7.18;2.50;;;6.70;93.60;;;;;;5043851;28;20045;-65
2022/02/02 19:04:34;;;;;;;7.80;2.63;;;6.80;93.60;;;;;;5041230;28;20083;-64
2022/02/02 19:31:47;;;;;;;7.72;2.25;;;6.70;93.60;;;;;;5040047;28;20492;-63
2022/02/02 19:53:20;;;;;;;8.85;2.70;;;6.50;93.90;;;;;;5041435;28;20029;-63
2022/02/02 19:55:45;;;;;;;9.70;2.22;;;6.40;94.00;;;;;;5043109;28;20034;-63
2022/02/02 20:03:54;;;;;;;7.47;1.98;;;6.50;94.10;;;;;;4983931;28;20094;-64
2022/02/02 20:09:08;;;;;;;7.55;2.30;;;6.40;94.20;;;;;;5033512;28;20472;-64
2022/02/02 20:11:34;;;;;;;8.75;2.42;;;6.40;94.20;;;;;;5039048;28;20033;-64
2022/02/02 20:13:59;;;;;;;7.78;2.67;;;6.40;94.50;;;;;;5044335;28;20029;-64
2022/02/02 20:16:25;;;;;;;9.38;2.75;;;6.40;94.30;;;;;;5049199;28;20035;-64
2022/02/02 20:18:54;;;;;;;7.95;1.90;;;6.50;94.40;;;;;;5036755;28;20030;-65
2022/02/02 20:21:23;;;;;;;9.77;2.47;;;6.50;94.30;;;;;;5032266;28;20057;-65
2022/02/02 20:23:50;;;;;;;8.55;2.80;;;6.60;94.30;;;;;;5045748;28;20365;-65
2022/02/02 20:26:18;;;;;;;5.95;1.98;;;6.60;94.30;;;;;;5038592;28;20053;-64
2022/02/02 20:28:45;;;;;;;7.90;2.03;;;6.70;94.30;;;;;;5049482;28;20086;-64
2022/02/02 20:31:11;;;;;;;7.00;2.55;;;6.70;94.30;;;;;;5051455;28;20024;-65
2022/02/02 20:33:37;;;;;;;6.13;2.20;;;6.70;94.20;;;;;;5038732;28;20502;-64
2022/02/02 20:36:03;;;;;;;5.85;2.17;;;6.70;94.20;;;;;;5050104;28;20083;-65
2022/02/02 20:38:28;;;;;;;8.25;2.13;;;6.70;94.10;;;;;;5042505;28;20039;-64
2022/02/02 20:40:54;;;;;;;5.20;2.20;;;6.70;94.20;;;;;;5031906;28;20047;-64
2022/02/02 20:46:29;;;;;;;7.90;2.33;;;6.60;94.10;;;;;;5032259;28;20075;-65
2022/02/02 21:03:16;;;;;;;7.38;2.15;;;6.50;94.00;;;;;;5045544;28;20619;-64
2022/02/02 21:06:30;;;;;;;7.88;2.20;;;6.50;94.00;;;;;;5051508;28;20041;-64
2022/02/02 21:08:59;;;;;;;8.48;2.10;;;6.40;94.10;;;;;;5020457;28;20431;-64
2022/02/02 21:14:13;;;;;;;9.73;2.17;;;6.40;94.20;;;;;;5049403;28;20590;-64
2022/02/02 21:16:42;;;;;;;9.60;2.03;;;6.40;94.20;;;;;;5051152;28;20081;-64
2022/02/02 21:19:10;;;;;;;6.90;2.08;;;6.40;94.30;;;;;;5050153;28;20025;-64
2022/02/02 21:21:46;;;;;;;4.78;2.30;;;6.40;94.30;;;;;;5051298;28;20041;-64
2022/02/02 21:29:22;;;;;;;8.20;2.47;;;6.30;94.20;;;;;;5041741;28;20480;-63
2022/02/02 21:31:48;;;;;;;7.53;2.88;;;6.20;94.10;;;;;;5049531;28;20021;-64
2022/02/02 21:34:14;;;;;;;9.40;3.00;;;6.20;94.20;;;;;;5044788;28;20609;-64
2022/02/02 21:36:40;;;;;;;9.50;2.53;;;6.20;94.20;;;;;;5031294;28;20025;-64
2022/02/02 21:39:08;;;;;;;14.05;3.60;;;6.10;94.20;;;;;;5032413;28;20030;-63
2022/02/02 21:41:39;;;;;;;7.22;2.95;;;6.20;94.20;;;;;;5031036;28;20038;-63
2022/02/02 21:44:06;;;;;;;7.55;2.50;;;6.20;94.30;;;;;;5040627;28;20021;-63
2022/02/02 21:46:32;;;;;;;8.65;2.33;;;6.20;94.30;;;;;;5031432;28;20029;-63
2022/02/02 21:49:03;;;;;;;7.90;2.40;;;6.10;94.20;;;;;;5041432;28;20071;-64
2022/02/02 21:51:36;;;;;;;6.38;2.10;;;6.10;94.30;;;;;;5035090;28;20033;-64
2022/02/02 21:54:02;;;;;;;12.00;3.33;;;6.10;94.30;;;;;;5039321;28;20033;-64
2022/02/02 21:56:28;;;;;;;12.20;3.42;;;6.10;94.30;;;;;;5050912;28;20032;-64
2022/02/02 21:58:54;;;;;;;9.10;2.03;;;6.00;94.20;;;;;;5044558;28;20476;-65
2022/02/02 22:01:20;;;;;;;7.45;2.78;;;6.00;94.30;;;;;;5040510;28;20159;-64
2022/02/02 22:03:45;;;;;;;10.00;2.60;;;6.00;94.40;;;;;;5032765;28;20025;-64
2022/02/02 22:06:11;;;;;;;8.23;2.33;;;5.90;94.40;;;;;;5030954;28;20037;-64
2022/02/02 22:08:36;;;;;;;11.02;2.13;;;5.90;94.40;;;;;;5047262;28;20021;-64
2022/02/02 22:11:02;;;;;;;10.63;2.20;;;5.90;94.40;;;;;;5041303;28;20033;-63
2022/02/02 22:13:41;;;;;;;12.32;2.75;;;5.90;94.40;;;;;;5045781;28;20029;-64
2022/02/02 22:16:10;;;;;;;11.80;2.47;;;5.90;94.40;;;;;;5054499;28;20104;-63
2022/02/02 22:18:38;;;;;;;9.57;2.53;;;5.90;94.40;;;;;;5030490;28;20025;-64
2022/02/02 22:21:04;;;;;;;14.55;2.80;;;5.80;94.40;;;;;;5034500;28;20037;-63
2022/02/02 22:23:29;;;;;;;8.75;2.58;;;5.80;94.50;;;;;;5049277;28;20547;-62
2022/02/02 22:25:57;;;;;;;9.60;2.42;;;5.80;94.50;;;;;;5054694;28;20037;-62
2022/02/02 22:28:23;;;;;;;8.23;2.38;;;5.80;94.50;;;;;;5040168;28;20033;-63
2022/02/02 22:30:48;;;;;;;12.25;2.53;;;5.80;94.50;;;;;;5043155;28;20434;-63
2022/02/02 22:33:14;;;;;;;8.02;2.40;;;5.80;94.40;;;;;;5053467;28;20025;-62
2022/02/02 22:35:39;;;;;;;7.88;2.70;;;5.80;94.40;;;;;;5045599;28;20113;-62